createdAt,value
2018-07-16T00:00:26.085Z,40.40
2018-07-16T00:01:26.102Z,39.00
2018-07-16T00:02:26.121Z,39.40
2018-07-16T00:03:26.137Z,39.30
2018-07-16T00:04:26.168Z,37.70
2018-07-16T00:05:26.258Z,38.50
2018-07-16T00:06:26.194Z,37.30
2018-07-16T00:07:26.159Z,38.40
2018-07-16T00:08:26.233Z,36.00
2018-07-16T00:09:26.214Z,38.20
2018-07-16T00:10:26.334Z,38.90
2018-07-16T00:11:26.235Z,37.40
2018-07-16T00:12:26.249Z,37.30
2018-07-16T00:13:26.261Z,38.10
2018-07-16T00:14:26.270Z,37.10
2018-07-16T00:15:26.278Z,37.80
2018-07-16T00:16:26.391Z,37.30
2018-07-16T00:17:26.350Z,37.30
2018-07-16T00:18:26.330Z,37.90
2018-07-16T00:19:26.352Z,37.50
2018-07-16T00:20:26.380Z,38.30
2018-07-16T00:21:26.381Z,38.60
2018-07-16T00:22:26.494Z,39.00
2018-07-16T00:23:26.384Z,39.40
2018-07-16T00:24:26.425Z,40.60
2018-07-16T00:25:26.393Z,40.80
2018-07-16T00:26:26.429Z,41.30
2018-07-16T00:27:26.436Z,41.80
2018-07-16T00:28:26.596Z,43.80
2018-07-16T00:29:26.470Z,46.00
2018-07-16T00:30:26.491Z,45.90
2018-07-16T00:31:26.470Z,44.10
2018-07-16T00:32:26.496Z,43.20
2018-07-16T00:33:26.590Z,43.30
2018-07-16T00:34:26.513Z,41.00
2018-07-16T00:35:26.535Z,43.10
2018-07-16T00:36:26.596Z,43.90
2018-07-16T00:37:26.624Z,43.90
2018-07-16T00:38:26.800Z,43.80
2018-07-16T00:39:26.591Z,43.10
2018-07-16T00:40:26.607Z,45.80
2018-07-16T00:41:26.625Z,46.00
2018-07-16T00:42:26.651Z,45.70
2018-07-16T00:43:26.838Z,44.50
2018-07-16T00:44:26.759Z,44.30
2018-07-16T00:45:26.680Z,45.10
2018-07-16T00:46:26.725Z,46.70
2018-07-16T00:47:26.725Z,43.70
2018-07-16T00:48:26.834Z,44.60
2018-07-16T00:49:26.720Z,45.60
2018-07-16T00:50:26.771Z,46.00
2018-07-16T00:51:26.742Z,46.30
2018-07-16T00:52:26.784Z,47.10
2018-07-16T00:53:26.968Z,46.70
2018-07-16T00:54:26.776Z,45.10
2018-07-16T00:55:26.853Z,44.40
2018-07-16T00:56:26.854Z,46.00
2018-07-16T00:57:26.843Z,45.40
2018-07-16T00:58:27.019Z,45.10
2018-07-16T00:59:26.886Z,46.20
2018-07-16T01:00:26.871Z,45.60
2018-07-16T01:01:26.895Z,44.20
2018-07-16T01:02:26.885Z,45.60
2018-07-16T01:03:26.897Z,46.90
2018-07-16T01:04:27.075Z,46.20
2018-07-16T01:05:26.927Z,44.60
2018-07-16T01:06:27.002Z,44.50
2018-07-16T01:07:26.959Z,43.30
2018-07-16T01:08:26.955Z,43.90
2018-07-16T01:09:27.071Z,45.00
2018-07-16T01:10:27.008Z,45.60
2018-07-16T01:11:27.036Z,43.60
2018-07-16T01:12:27.071Z,47.30
2018-07-16T01:13:27.055Z,47.00
2018-07-16T01:14:27.145Z,45.30
2018-07-16T01:15:27.046Z,44.90
2018-07-16T01:16:27.085Z,46.70
2018-07-16T01:17:27.102Z,48.00
2018-07-16T01:18:27.109Z,44.70
2018-07-16T01:19:27.223Z,47.60
2018-07-16T01:20:27.155Z,48.80
2018-07-16T01:21:27.129Z,48.90
2018-07-16T01:22:27.136Z,45.60
2018-07-16T01:23:27.131Z,47.20
2018-07-16T01:24:27.271Z,45.90
2018-07-16T01:25:27.164Z,46.40
2018-07-16T01:26:27.223Z,47.00
2018-07-16T01:27:27.213Z,47.80
2018-07-16T01:28:27.228Z,47.20
2018-07-16T01:29:27.370Z,48.20
2018-07-16T01:30:27.268Z,48.30
2018-07-16T01:31:27.237Z,49.50
2018-07-16T01:32:27.257Z,50.10
2018-07-16T01:33:27.262Z,53.70
2018-07-16T01:34:27.287Z,52.80
2018-07-16T01:35:27.411Z,50.70
2018-07-16T01:36:27.328Z,51.20
2018-07-16T01:37:27.305Z,49.40
2018-07-16T01:38:27.366Z,49.90
2018-07-16T01:39:27.375Z,50.20
2018-07-16T01:40:27.539Z,49.00
2018-07-16T01:41:27.384Z,46.70
2018-07-16T01:42:27.376Z,48.50
2018-07-16T01:44:27.497Z,48.00
2018-07-16T01:45:27.469Z,49.40
2018-07-16T01:46:27.563Z,48.20
2018-07-16T01:47:27.449Z,47.00
2018-07-16T01:48:27.478Z,46.50
2018-07-16T01:49:27.485Z,48.60
2018-07-16T01:50:27.522Z,49.70
2018-07-16T01:51:27.645Z,49.80
2018-07-16T01:52:27.515Z,48.40
2018-07-16T01:53:27.581Z,48.40
2018-07-16T01:54:27.529Z,48.20
2018-07-16T01:55:27.620Z,49.20
2018-07-16T01:56:27.653Z,48.30
2018-07-16T01:57:27.599Z,48.50
2018-07-16T01:58:27.593Z,47.90
2018-07-16T01:59:27.618Z,48.40
2018-07-16T02:00:27.655Z,47.00
2018-07-16T02:01:27.720Z,49.10
2018-07-16T02:02:27.675Z,47.90
2018-07-16T02:03:27.691Z,49.10
2018-07-16T02:04:27.667Z,47.30
2018-07-16T02:05:27.661Z,48.50
2018-07-16T02:06:27.851Z,49.70
2018-07-16T02:07:27.757Z,49.50
2018-07-16T02:09:27.720Z,52.50
2018-07-16T02:10:27.744Z,55.60
2018-07-16T02:11:27.753Z,56.50
2018-07-16T02:12:27.849Z,57.30
2018-07-16T02:13:27.777Z,55.00
2018-07-16T02:14:27.773Z,55.00
2018-07-16T02:15:27.793Z,55.60
2018-07-16T02:16:27.793Z,56.40
2018-07-16T02:17:27.999Z,56.60
2018-07-16T02:18:27.853Z,57.80
2018-07-16T02:19:27.821Z,57.60
2018-07-16T02:20:27.831Z,56.40
2018-07-16T02:21:27.857Z,56.00
2018-07-16T02:22:27.980Z,56.90
2018-07-16T02:23:27.899Z,56.00
2018-07-16T02:24:27.878Z,57.90
2018-07-16T02:25:27.908Z,58.90
2018-07-16T02:26:27.919Z,57.40
2018-07-16T02:27:28.077Z,57.90
2018-07-16T02:28:27.939Z,61.20
2018-07-16T02:29:27.926Z,60.80
2018-07-16T02:30:27.993Z,61.60
2018-07-16T02:31:28.037Z,63.00
2018-07-16T02:32:28.127Z,65.90
2018-07-16T02:33:28.007Z,69.00
2018-07-16T02:34:28.120Z,71.00
2018-07-16T02:35:28.001Z,72.40
2018-07-16T02:36:28.078Z,71.50
2018-07-16T02:37:28.208Z,71.00
2018-07-16T02:38:28.082Z,70.30
2018-07-16T02:39:28.073Z,72.10
2018-07-16T02:40:28.084Z,70.70
2018-07-16T02:41:28.097Z,75.20
2018-07-16T02:42:28.285Z,74.70
2018-07-16T02:43:28.100Z,70.00
2018-07-16T02:44:28.122Z,70.60
2018-07-16T02:45:28.181Z,69.00
2018-07-16T02:46:28.150Z,66.80
2018-07-16T02:47:28.319Z,66.40
2018-07-16T02:48:28.165Z,67.80
2018-07-16T02:49:28.166Z,69.80
2018-07-16T02:50:28.185Z,74.00
2018-07-16T02:51:28.222Z,73.60
2018-07-16T02:52:28.339Z,72.20
2018-07-16T02:53:28.237Z,69.30
2018-07-16T02:54:28.282Z,69.00
2018-07-16T02:55:28.237Z,71.60
2018-07-16T02:56:28.352Z,71.90
2018-07-16T02:57:28.277Z,73.20
2018-07-16T02:58:28.402Z,71.40
2018-07-16T02:59:28.310Z,70.60
2018-07-16T03:00:28.357Z,70.80
2018-07-16T03:01:28.332Z,72.70
2018-07-16T03:02:28.349Z,71.90
2018-07-16T03:03:28.500Z,70.90
2018-07-16T03:04:28.377Z,71.20
2018-07-16T03:05:28.378Z,73.20
2018-07-16T03:06:28.398Z,71.40
2018-07-16T03:07:28.507Z,71.60
2018-07-16T03:08:28.566Z,73.00
2018-07-16T03:09:28.420Z,71.60
2018-07-16T03:10:28.429Z,71.20
2018-07-16T03:11:28.436Z,72.40
2018-07-16T03:12:28.455Z,71.10
2018-07-16T03:13:28.585Z,71.60
2018-07-16T03:14:28.475Z,69.90
2018-07-16T03:15:28.494Z,72.40
2018-07-16T03:16:28.538Z,70.10
2018-07-16T03:17:28.535Z,69.30
2018-07-16T03:18:28.625Z,69.80
2018-07-16T03:19:28.547Z,68.60
2018-07-16T03:20:28.558Z,65.70
2018-07-16T03:21:28.609Z,68.70
2018-07-16T03:22:28.553Z,67.60
2018-07-16T03:23:28.694Z,68.70
2018-07-16T03:24:28.616Z,69.00
2018-07-16T03:25:28.612Z,70.30
2018-07-16T03:26:28.627Z,70.00
2018-07-16T03:27:28.620Z,70.40
2018-07-16T03:28:28.807Z,67.90
2018-07-16T03:29:28.655Z,63.50
2018-07-16T03:30:28.656Z,62.90
2018-07-16T03:31:28.725Z,61.00
2018-07-16T03:32:28.800Z,62.60
2018-07-16T03:33:28.818Z,65.00
2018-07-16T03:34:28.824Z,63.90
2018-07-16T03:35:28.709Z,64.40
2018-07-16T03:36:28.781Z,65.10
2018-07-16T03:37:28.787Z,64.90
2018-07-16T03:38:28.891Z,66.50
2018-07-16T03:39:28.807Z,65.60
2018-07-16T03:40:28.783Z,63.80
2018-07-16T03:41:28.805Z,63.20
2018-07-16T03:42:28.792Z,64.40
2018-07-16T03:43:28.919Z,64.70
2018-07-16T03:44:28.843Z,64.10
2018-07-16T03:45:28.848Z,64.50
2018-07-16T03:46:28.867Z,64.90
2018-07-16T03:47:28.868Z,64.90
2018-07-16T03:48:28.968Z,64.20
2018-07-16T03:49:28.936Z,65.70
2018-07-16T03:50:28.938Z,64.10
2018-07-16T03:51:28.952Z,67.20
2018-07-16T03:52:28.907Z,62.80
2018-07-16T03:53:28.915Z,64.20
2018-07-16T03:54:29.094Z,63.50
2018-07-16T03:55:28.952Z,63.40
2018-07-16T03:56:29.013Z,64.10
2018-07-16T03:57:28.980Z,61.40
2018-07-16T03:58:28.989Z,64.50
2018-07-16T03:59:29.015Z,66.70
2018-07-16T04:00:29.096Z,66.60
2018-07-16T04:01:29.063Z,64.40
2018-07-16T04:02:29.057Z,67.30
2018-07-16T04:03:29.042Z,67.50
2018-07-16T04:04:29.063Z,67.90
2018-07-16T04:05:29.184Z,71.00
2018-07-16T04:06:29.067Z,68.80
2018-07-16T04:07:29.112Z,70.80
2018-07-16T04:08:29.114Z,74.00
2018-07-16T04:09:29.227Z,71.20
2018-07-16T04:10:29.123Z,75.70
2018-07-16T04:11:29.271Z,78.60
2018-07-16T04:12:29.150Z,80.20
2018-07-16T04:13:29.164Z,75.30
2018-07-16T04:14:29.213Z,74.40
2018-07-16T04:15:29.184Z,71.80
2018-07-16T04:16:29.362Z,69.90
2018-07-16T04:17:29.207Z,69.40
2018-07-16T04:18:29.264Z,72.00
2018-07-16T04:19:29.242Z,73.90
2018-07-16T04:20:29.238Z,74.40
2018-07-16T04:21:29.291Z,78.50
2018-07-16T04:22:29.413Z,82.50
2018-07-16T04:23:29.308Z,82.80
2018-07-16T04:24:29.277Z,80.30
2018-07-16T04:25:29.301Z,82.10
2018-07-16T04:26:29.310Z,80.50
2018-07-16T04:27:29.335Z,77.70
2018-07-16T04:28:29.499Z,75.10
2018-07-16T04:29:29.389Z,75.10
2018-07-16T04:30:29.391Z,77.50
2018-07-16T04:31:29.349Z,78.00
2018-07-16T04:32:29.381Z,80.90
2018-07-16T04:33:29.481Z,81.20
2018-07-16T04:34:29.390Z,81.00
2018-07-16T04:35:29.432Z,79.40
2018-07-16T04:36:29.420Z,80.10
2018-07-16T04:37:29.432Z,79.20
2018-07-16T04:38:29.565Z,73.20
2018-07-16T04:39:29.444Z,78.70
2018-07-16T04:40:29.468Z,79.60
2018-07-16T04:41:29.474Z,77.40
2018-07-16T04:42:29.502Z,77.90
2018-07-16T04:43:29.666Z,75.00
2018-07-16T04:44:29.500Z,75.70
2018-07-16T04:45:29.567Z,76.50
2018-07-16T04:46:29.546Z,74.40
2018-07-16T04:47:29.546Z,75.30
2018-07-16T04:48:29.754Z,78.10
2018-07-16T04:49:29.568Z,78.80
2018-07-16T04:50:29.582Z,76.50
2018-07-16T04:51:29.645Z,81.70
2018-07-16T04:52:29.611Z,82.60
2018-07-16T04:53:29.731Z,81.20
2018-07-16T04:54:29.623Z,82.70
2018-07-16T04:55:29.636Z,83.30
2018-07-16T04:56:29.695Z,82.90
2018-07-16T04:57:29.660Z,79.80
2018-07-16T04:58:29.771Z,85.00
2018-07-16T04:59:29.725Z,84.70
2018-07-16T05:00:29.688Z,92.80
2018-07-16T05:01:29.699Z,89.30
2018-07-16T05:02:29.707Z,92.70
2018-07-16T05:03:29.810Z,96.50
2018-07-16T05:04:29.751Z,93.30
2018-07-16T05:05:29.750Z,97.80
2018-07-16T05:06:29.768Z,95.30
2018-07-16T05:07:29.775Z,93.30
2018-07-16T05:08:29.893Z,94.30
2018-07-16T05:09:29.799Z,85.50
2018-07-16T05:10:29.843Z,93.00
2018-07-16T05:11:29.799Z,86.30
2018-07-16T05:12:29.819Z,87.50
2018-07-16T05:13:29.944Z,88.30
2018-07-16T05:14:29.851Z,87.90
2018-07-16T05:15:29.850Z,87.60
2018-07-16T05:16:29.868Z,88.30
2018-07-16T05:17:29.889Z,84.20
2018-07-16T05:18:30.046Z,84.50
2018-07-16T05:19:30.071Z,83.20
2018-07-16T05:20:29.931Z,83.50
2018-07-16T05:21:29.916Z,86.10
2018-07-16T05:22:29.949Z,84.90
2018-07-16T05:23:29.950Z,89.50
2018-07-16T05:24:29.971Z,86.30
2018-07-16T05:25:30.075Z,82.40
2018-07-16T05:26:29.996Z,86.70
2018-07-16T05:27:29.988Z,84.40
2018-07-16T05:28:30.011Z,81.50
2018-07-16T05:29:30.031Z,82.70
2018-07-16T05:30:30.143Z,88.40
2018-07-16T05:31:30.202Z,89.20
2018-07-16T05:32:30.197Z,94.80
2018-07-16T05:33:30.058Z,96.30
2018-07-16T05:34:30.122Z,98.70
2018-07-16T05:35:30.097Z,98.90
2018-07-16T05:36:30.242Z,95.30
2018-07-16T05:37:30.104Z,92.80
2018-07-16T05:38:30.115Z,93.30
2018-07-16T05:39:30.126Z,96.80
2018-07-16T05:40:30.136Z,94.30
2018-07-16T05:41:30.255Z,93.80
2018-07-16T05:42:30.141Z,94.50
2018-07-16T05:43:30.182Z,83.70
2018-07-16T05:44:30.221Z,83.50
2018-07-16T05:45:30.174Z,90.00
2018-07-16T05:46:30.225Z,89.70
2018-07-16T05:47:30.358Z,88.20
2018-07-16T05:48:30.215Z,90.50
2018-07-16T05:49:30.242Z,88.70
2018-07-16T05:50:30.248Z,85.80
2018-07-16T05:51:30.255Z,85.80
2018-07-16T05:52:30.420Z,85.20
2018-07-16T05:53:30.261Z,90.10
2018-07-16T05:54:30.279Z,92.10
2018-07-16T05:55:30.420Z,84.50
2018-07-16T05:56:30.307Z,77.70
2018-07-16T05:57:30.436Z,82.80
2018-07-16T05:58:30.360Z,82.60
2018-07-16T05:59:30.338Z,84.00
2018-07-16T06:00:30.339Z,81.00
2018-07-16T06:01:30.368Z,79.70
2018-07-16T06:02:30.529Z,82.40
2018-07-16T06:03:30.382Z,82.80
2018-07-16T06:04:30.402Z,80.90
2018-07-16T06:05:30.400Z,81.60
2018-07-16T06:06:30.426Z,82.40
2018-07-16T06:07:30.637Z,80.40
2018-07-16T06:08:30.556Z,81.30
2018-07-16T06:09:30.449Z,83.90
2018-07-16T06:10:30.466Z,84.20
2018-07-16T06:11:30.488Z,84.90
2018-07-16T06:12:30.565Z,81.80
2018-07-16T06:13:30.503Z,79.90
2018-07-16T06:14:30.587Z,80.60
2018-07-16T06:15:30.531Z,80.30
2018-07-16T06:16:30.527Z,80.70
2018-07-16T06:17:30.647Z,80.70
2018-07-16T06:18:30.553Z,82.70
2018-07-16T06:19:30.579Z,83.30
2018-07-16T06:20:30.566Z,84.70
2018-07-16T06:21:30.590Z,80.50
2018-07-16T06:22:30.695Z,78.60
2018-07-16T06:23:30.618Z,79.60
2018-07-16T06:24:30.622Z,81.90
2018-07-16T06:25:30.628Z,85.40
2018-07-16T06:26:30.645Z,78.50
2018-07-16T06:27:30.752Z,78.20
2018-07-16T06:28:30.662Z,82.20
2018-07-16T06:29:30.680Z,86.80
2018-07-16T06:30:30.695Z,85.30
2018-07-16T06:31:30.701Z,83.60
2018-07-16T06:32:30.833Z,80.30
2018-07-16T06:33:30.721Z,81.50
2018-07-16T06:34:30.727Z,83.60
2018-07-16T06:35:30.765Z,74.90
2018-07-16T06:36:30.743Z,84.70
2018-07-16T06:37:30.749Z,85.50
2018-07-16T06:38:30.862Z,83.80
2018-07-16T06:39:30.906Z,86.50
2018-07-16T06:40:30.985Z,81.90
2018-07-16T06:41:31.379Z,83.80
2018-07-16T06:42:30.808Z,85.00
2018-07-16T06:43:30.833Z,81.60
2018-07-16T06:44:31.100Z,88.80
2018-07-16T06:45:30.836Z,85.70
2018-07-16T06:46:30.903Z,91.60
2018-07-16T06:47:30.864Z,95.90
2018-07-16T06:48:30.895Z,95.40
2018-07-16T06:49:30.910Z,97.10
2018-07-16T06:50:30.986Z,95.90
2018-07-16T06:51:30.905Z,96.20
2018-07-16T06:52:30.914Z,99.80
2018-07-16T06:53:30.921Z,98.80
2018-07-16T06:54:30.959Z,100.60
2018-07-16T06:55:30.962Z,102.50
2018-07-16T06:56:31.065Z,101.00
2018-07-16T06:57:30.976Z,96.50
2018-07-16T06:58:30.988Z,101.00
2018-07-16T06:59:31.004Z,102.50
2018-07-16T07:00:31.016Z,101.00
2018-07-16T07:01:31.162Z,95.00
2018-07-16T07:02:31.040Z,91.90
2018-07-16T07:03:31.058Z,89.80
2018-07-16T07:04:31.057Z,96.80
2018-07-16T07:05:31.059Z,99.00
2018-07-16T07:06:31.081Z,99.60
2018-07-16T07:07:31.187Z,102.70
2018-07-16T07:08:31.094Z,103.60
2018-07-16T07:09:31.127Z,100.50
2018-07-16T07:10:31.115Z,102.10
2018-07-16T07:11:31.131Z,93.70
2018-07-16T07:12:31.232Z,99.80
2018-07-16T07:13:31.167Z,100.30
2018-07-16T07:14:31.185Z,104.20
2018-07-16T07:15:31.186Z,103.10
2018-07-16T07:16:31.222Z,105.70
2018-07-16T07:17:31.292Z,104.20
2018-07-16T07:18:31.187Z,106.00
2018-07-16T07:19:31.219Z,99.80
2018-07-16T07:20:31.216Z,107.30
2018-07-16T07:21:31.257Z,102.30
2018-07-16T07:22:31.273Z,104.30
2018-07-16T07:23:31.404Z,103.70
2018-07-16T07:24:31.253Z,97.90
2018-07-16T07:25:31.401Z,98.60
2018-07-16T07:26:31.333Z,102.70
2018-07-16T07:27:31.350Z,110.70
2018-07-16T07:28:31.417Z,109.50
2018-07-16T07:29:31.437Z,110.40
2018-07-16T07:30:31.340Z,113.00
2018-07-16T07:31:31.340Z,112.00
2018-07-16T07:32:31.349Z,112.90
2018-07-16T07:33:31.467Z,110.30
2018-07-16T07:34:31.395Z,112.90
2018-07-16T07:35:31.440Z,115.60
2018-07-16T07:36:31.405Z,122.30
2018-07-16T07:37:31.411Z,121.90
2018-07-16T07:38:31.520Z,119.40
2018-07-16T07:39:31.449Z,111.30
2018-07-16T07:40:31.441Z,118.10
2018-07-16T07:41:31.453Z,111.10
2018-07-16T07:42:31.469Z,102.60
2018-07-16T07:43:31.578Z,102.30
2018-07-16T07:44:31.477Z,99.80
2018-07-16T07:45:31.494Z,100.10
2018-07-16T07:46:31.518Z,104.10
2018-07-16T07:47:31.592Z,107.80
2018-07-16T07:48:31.633Z,102.20
2018-07-16T07:49:31.551Z,105.60
2018-07-16T07:50:31.539Z,105.00
2018-07-16T07:51:31.612Z,107.20
2018-07-16T07:52:31.567Z,111.50
2018-07-16T07:53:31.673Z,105.30
2018-07-16T07:54:31.673Z,105.10
2018-07-16T07:55:31.653Z,101.40
2018-07-16T07:56:31.610Z,107.50
2018-07-16T07:57:31.616Z,110.70
2018-07-16T07:58:31.737Z,100.20
2018-07-16T07:59:31.692Z,103.50
2018-07-16T08:00:31.658Z,110.90
2018-07-16T08:01:31.645Z,111.90
2018-07-16T08:02:31.675Z,103.30
2018-07-16T08:03:31.669Z,99.20
2018-07-16T08:04:31.773Z,102.40
2018-07-16T08:05:31.709Z,102.10
2018-07-16T08:06:31.706Z,106.90
2018-07-16T08:07:31.727Z,110.30
2018-07-16T08:08:31.781Z,108.20
2018-07-16T08:09:31.743Z,109.90
2018-07-16T08:10:31.842Z,114.20
2018-07-16T08:11:31.754Z,111.10
2018-07-16T08:12:31.891Z,108.30
2018-07-16T08:13:31.802Z,112.00
2018-07-16T08:14:31.812Z,115.70
2018-07-16T08:15:31.855Z,112.50
2018-07-16T08:16:31.928Z,109.80
2018-07-16T08:17:31.823Z,111.90
2018-07-16T08:18:31.864Z,115.20
2018-07-16T08:19:31.844Z,104.50
2018-07-16T08:20:31.853Z,101.10
2018-07-16T08:21:31.865Z,104.80
2018-07-16T08:22:31.985Z,108.30
2018-07-16T08:23:31.890Z,108.10
2018-07-16T08:24:31.908Z,111.60
2018-07-16T08:25:31.925Z,114.10
2018-07-16T08:26:31.911Z,115.60
2018-07-16T08:27:31.946Z,113.70
2018-07-16T08:28:32.073Z,112.60
2018-07-16T08:29:31.949Z,117.40
2018-07-16T08:30:31.950Z,119.10
2018-07-16T08:31:31.986Z,121.40
2018-07-16T08:32:31.972Z,113.00
2018-07-16T08:33:32.113Z,117.30
2018-07-16T08:34:32.008Z,115.10
2018-07-16T08:35:32.058Z,110.80
2018-07-16T08:36:32.031Z,114.20
2018-07-16T08:37:32.038Z,118.80
2018-07-16T08:38:32.063Z,113.20
2018-07-16T08:39:32.167Z,113.70
2018-07-16T08:40:32.052Z,115.30
2018-07-16T08:41:32.094Z,114.90
2018-07-16T08:42:32.086Z,116.90
2018-07-16T08:43:32.099Z,114.30
2018-07-16T08:44:32.209Z,109.30
2018-07-16T08:45:32.119Z,110.80
2018-07-16T08:46:32.138Z,110.20
2018-07-16T08:47:32.153Z,107.20
2018-07-16T08:48:32.158Z,100.40
2018-07-16T08:49:32.248Z,104.50
2018-07-16T08:50:32.184Z,107.60
2018-07-16T08:51:32.291Z,111.50
2018-07-16T08:52:32.194Z,106.30
2018-07-16T08:53:32.212Z,118.00
2018-07-16T08:54:32.317Z,118.20
2018-07-16T08:55:32.210Z,113.20
2018-07-16T08:56:32.228Z,112.90
2018-07-16T08:57:32.232Z,112.60
2018-07-16T08:58:32.257Z,106.60
2018-07-16T08:59:32.340Z,103.00
2018-07-16T09:00:32.281Z,105.50
2018-07-16T09:01:32.278Z,110.00
2018-07-16T09:02:32.333Z,109.30
2018-07-16T09:03:32.313Z,115.20
2018-07-16T09:04:32.422Z,112.10
2018-07-16T09:05:32.359Z,107.60
2018-07-16T09:06:32.330Z,114.50
2018-07-16T09:07:32.359Z,111.60
2018-07-16T09:08:32.357Z,112.40
2018-07-16T09:09:32.466Z,104.90
2018-07-16T09:10:32.386Z,109.30
2018-07-16T09:11:32.382Z,109.50
2018-07-16T09:12:32.411Z,114.30
2018-07-16T09:13:32.403Z,106.30
2018-07-16T09:14:32.497Z,105.20
2018-07-16T09:15:32.479Z,116.20
2018-07-16T09:16:32.443Z,108.70
2018-07-16T09:17:32.448Z,110.60
2018-07-16T09:18:32.452Z,106.60
2018-07-16T09:19:32.458Z,104.80
2018-07-16T09:20:32.588Z,102.40
2018-07-16T09:21:32.507Z,111.50
2018-07-16T09:22:32.495Z,111.10
2018-07-16T09:23:32.525Z,113.40
2018-07-16T09:24:32.508Z,100.10
2018-07-16T09:25:32.681Z,99.20
2018-07-16T09:26:32.535Z,96.30
2018-07-16T09:27:32.530Z,99.20
2018-07-16T09:28:32.553Z,97.20
2018-07-16T09:29:32.610Z,98.30
2018-07-16T09:30:32.673Z,98.20
2018-07-16T09:31:32.605Z,102.30
2018-07-16T09:32:32.605Z,98.90
2018-07-16T09:33:32.619Z,100.90
2018-07-16T09:34:32.644Z,101.30
2018-07-16T09:35:32.743Z,97.80
2018-07-16T09:36:32.629Z,99.60
2018-07-16T09:37:32.653Z,96.60
2018-07-16T09:38:32.672Z,101.00
2018-07-16T09:39:32.666Z,97.70
2018-07-16T09:40:32.776Z,103.10
2018-07-16T09:41:32.678Z,101.00
2018-07-16T09:42:32.703Z,100.10
2018-07-16T09:43:32.764Z,99.00
2018-07-16T09:44:32.831Z,98.00
2018-07-16T09:45:32.839Z,98.70
2018-07-16T09:46:32.757Z,96.40
2018-07-16T09:47:32.759Z,97.80
2018-07-16T09:48:32.764Z,98.90
2018-07-16T09:49:32.752Z,97.30
2018-07-16T09:50:32.868Z,100.10
2018-07-16T09:51:32.795Z,102.10
2018-07-16T09:52:32.781Z,101.30
2018-07-16T09:53:32.798Z,97.50
2018-07-16T09:54:32.832Z,98.40
2018-07-16T09:55:32.990Z,98.30
2018-07-16T09:56:32.916Z,92.00
2018-07-16T09:57:32.841Z,90.40
2018-07-16T09:58:32.979Z,95.80
2018-07-16T09:59:32.857Z,97.00
2018-07-16T10:00:32.982Z,91.80
2018-07-16T10:01:32.874Z,92.50
2018-07-16T10:02:32.888Z,91.70
2018-07-16T10:03:32.923Z,96.50
2018-07-16T10:04:32.937Z,100.40
2018-07-16T10:05:32.945Z,102.90
2018-07-16T10:06:33.033Z,111.70
2018-07-16T10:07:33.000Z,98.60
2018-07-16T10:08:33.139Z,97.70
2018-07-16T10:09:32.993Z,97.90
2018-07-16T10:10:32.986Z,103.00
2018-07-16T10:11:32.998Z,105.70
2018-07-16T10:12:33.143Z,101.20
2018-07-16T10:13:33.004Z,101.30
2018-07-16T10:14:33.139Z,111.70
2018-07-16T10:15:33.023Z,109.40
2018-07-16T10:16:33.047Z,111.40
2018-07-16T10:17:33.211Z,106.30
2018-07-16T10:18:33.064Z,99.70
2018-07-16T10:19:33.081Z,105.40
2018-07-16T10:20:33.144Z,98.10
2018-07-16T10:21:33.119Z,95.40
2018-07-16T10:22:33.211Z,99.50
2018-07-16T10:23:33.110Z,100.40
2018-07-16T10:24:33.158Z,99.60
2018-07-16T10:25:33.150Z,95.40
2018-07-16T10:26:33.152Z,88.50
2018-07-16T10:27:33.273Z,85.30
2018-07-16T10:28:33.291Z,80.20
2018-07-16T10:29:33.303Z,75.30
2018-07-16T10:30:33.213Z,72.90
2018-07-16T10:31:33.252Z,69.20
2018-07-16T10:32:33.333Z,69.70
2018-07-16T10:33:33.235Z,70.90
2018-07-16T10:34:33.262Z,69.00
2018-07-16T10:35:33.253Z,68.70
2018-07-16T10:36:33.283Z,63.80
2018-07-16T10:37:33.406Z,62.50
2018-07-16T10:38:33.304Z,61.00
2018-07-16T10:39:33.320Z,61.60
2018-07-16T10:40:33.373Z,60.10
2018-07-16T10:41:33.354Z,59.90
2018-07-16T10:42:33.498Z,58.70
2018-07-16T10:43:33.381Z,57.70
2018-07-16T10:44:33.393Z,59.40
2018-07-16T10:45:33.393Z,56.30
2018-07-16T10:46:33.399Z,57.00
2018-07-16T10:47:33.542Z,57.20
2018-07-16T10:48:33.435Z,57.10
2018-07-16T10:49:33.471Z,57.60
2018-07-16T10:50:33.455Z,56.50
2018-07-16T10:51:33.473Z,54.70
2018-07-16T10:52:33.653Z,55.10
2018-07-16T10:53:33.550Z,58.90
2018-07-16T10:54:33.511Z,54.70
2018-07-16T10:55:33.545Z,54.90
2018-07-16T10:56:33.597Z,57.00
2018-07-16T10:57:33.684Z,55.30
2018-07-16T10:58:33.606Z,54.40
2018-07-16T10:59:33.615Z,56.00
2018-07-16T11:00:33.629Z,55.00
2018-07-16T11:01:33.643Z,54.60
2018-07-16T11:02:33.755Z,54.60
2018-07-16T11:03:33.673Z,53.30
2018-07-16T11:04:33.694Z,54.60
2018-07-16T11:05:33.795Z,53.90
2018-07-16T11:06:33.725Z,53.40
2018-07-16T11:07:33.833Z,52.00
2018-07-16T11:08:33.749Z,52.00
2018-07-16T11:09:33.770Z,51.40
2018-07-16T11:10:33.773Z,50.50
2018-07-16T11:11:33.809Z,50.80
2018-07-16T11:12:33.903Z,50.20
2018-07-16T11:13:33.833Z,50.60
2018-07-16T11:14:33.844Z,49.50
2018-07-16T11:15:33.868Z,50.60
2018-07-16T11:16:33.862Z,49.90
2018-07-16T11:17:33.919Z,51.00
2018-07-16T11:18:34.021Z,49.80
2018-07-16T11:19:33.947Z,51.20
2018-07-16T11:20:33.967Z,49.50
2018-07-16T11:21:33.978Z,50.90
2018-07-16T11:22:33.974Z,52.60
2018-07-16T11:23:34.161Z,51.60
2018-07-16T11:24:34.038Z,50.80
2018-07-16T11:25:34.065Z,50.50
2018-07-16T11:26:34.070Z,51.40
2018-07-16T11:27:34.110Z,50.50
2018-07-16T11:28:34.112Z,53.90
2018-07-16T11:29:34.306Z,50.80
2018-07-16T11:30:34.174Z,50.50
2018-07-16T11:31:34.178Z,50.00
2018-07-16T11:32:34.178Z,49.10
2018-07-16T11:33:34.195Z,50.60
2018-07-16T11:34:34.195Z,50.60
2018-07-16T11:35:34.397Z,50.90
2018-07-16T11:36:34.243Z,50.10
2018-07-16T11:37:34.254Z,52.20
2018-07-16T11:38:34.280Z,50.80
2018-07-16T11:39:34.302Z,50.20
2018-07-16T11:40:34.468Z,53.50
2018-07-16T11:41:34.328Z,50.90
2018-07-16T11:42:34.350Z,52.30
2018-07-16T11:43:34.361Z,49.90
2018-07-16T11:44:34.388Z,52.50
2018-07-16T11:45:34.548Z,53.60
2018-07-16T11:46:34.433Z,52.90
2018-07-16T11:47:34.484Z,53.80
2018-07-16T11:48:34.467Z,54.00
2018-07-16T11:49:34.490Z,52.60
2018-07-16T11:50:34.614Z,55.50
2018-07-16T11:51:34.524Z,53.30
2018-07-16T11:52:34.534Z,53.90
2018-07-16T11:53:34.562Z,51.60
2018-07-16T11:54:34.592Z,55.00
2018-07-16T11:55:34.709Z,53.50
2018-07-16T11:56:34.623Z,51.60
2018-07-16T11:57:34.626Z,51.90
2018-07-16T11:58:34.677Z,53.20
2018-07-16T11:59:34.705Z,51.80
2018-07-16T12:00:34.815Z,55.80
2018-07-16T12:01:34.728Z,53.80
2018-07-16T12:02:34.732Z,52.80
2018-07-16T12:03:34.804Z,50.90
2018-07-16T12:04:34.795Z,50.80
2018-07-16T12:05:34.948Z,52.00
2018-07-16T12:06:34.865Z,51.90
2018-07-16T12:07:34.899Z,52.40
2018-07-16T12:08:34.856Z,51.00
2018-07-16T12:09:34.862Z,51.90
2018-07-16T12:10:34.954Z,52.20
2018-07-16T12:11:35.060Z,53.90
2018-07-16T12:12:34.942Z,51.70
2018-07-16T12:13:34.954Z,53.00
2018-07-16T12:14:34.968Z,53.60
2018-07-16T12:15:35.017Z,52.20
2018-07-16T12:16:35.216Z,50.80
2018-07-16T12:17:35.017Z,53.10
2018-07-16T12:18:35.064Z,55.60
2018-07-16T12:19:35.080Z,52.30
2018-07-16T12:20:35.219Z,52.20
2018-07-16T12:21:35.196Z,52.80
2018-07-16T12:22:35.116Z,51.90
2018-07-16T12:23:35.139Z,50.00
2018-07-16T12:24:35.171Z,51.50
2018-07-16T12:25:35.201Z,51.60
2018-07-16T12:26:35.335Z,50.60
2018-07-16T12:27:35.227Z,50.80
2018-07-16T12:28:35.244Z,50.20
2018-07-16T12:29:35.279Z,52.20
2018-07-16T12:30:35.286Z,50.90
2018-07-16T12:31:35.408Z,50.80
2018-07-16T12:32:35.353Z,47.10
2018-07-16T12:33:35.345Z,49.10
2018-07-16T12:34:35.357Z,45.20
2018-07-16T12:35:35.382Z,41.30
2018-07-16T12:36:35.492Z,44.70
2018-07-16T12:37:35.403Z,42.30
2018-07-16T12:38:35.426Z,42.70
2018-07-16T12:39:35.448Z,43.00
2018-07-16T12:40:35.485Z,46.50
2018-07-16T12:41:35.750Z,44.10
2018-07-16T12:42:35.484Z,45.00
2018-07-16T12:43:35.510Z,43.40
2018-07-16T12:44:35.527Z,43.40
2018-07-16T12:45:35.582Z,41.00
2018-07-16T12:46:35.713Z,39.70
2018-07-16T12:47:35.592Z,40.60
2018-07-16T12:48:35.598Z,38.70
2018-07-16T12:49:35.635Z,40.60